Time;durP1;ratioP1;P1;durP2;ratioP2;P2;SDS_P1;SDS_P2;PMS_P1;PMS_P2;Temp;Humidity;BMP_temperature;BMP_pressure;BME280_temperature;BME280_humidity;BME280_pressure;Samples;Min_cycle;Max_cycle;Signal;HPM_P1;HPM_P2
2021/07/07 00:01:23;;;;;;;1.65;1.05;;;24.70;66.10;;;;;;5071136;28;20521;-49
2021/07/07 00:03:48;;;;;;;2.28;1.10;;;24.70;66.10;;;;;;5070209;28;20457;-49
2021/07/07 00:06:14;;;;;;;1.20;0.82;;;24.70;66.00;;;;;;5053786;28;20025;-54
2021/07/07 00:08:40;;;;;;;1.13;1.00;;;24.80;66.10;;;;;;5069101;28;20025;-52
2021/07/07 00:11:06;;;;;;;1.98;0.82;;;24.70;65.90;;;;;;5052274;28;20109;-49
2021/07/07 00:13:31;;;;;;;1.17;0.98;;;24.80;66.00;;;;;;5033795;28;20075;-49
2021/07/07 00:15:57;;;;;;;0.82;0.80;;;24.80;66.10;;;;;;5052108;28;20029;-49
2021/07/07 00:18:23;;;;;;;0.93;0.75;;;24.70;65.90;;;;;;5055313;28;20028;-50
2021/07/07 00:23:17;;;;;;;2.83;0.80;;;24.80;66.00;;;;;;5070801;28;20033;-52
2021/07/07 00:25:43;;;;;;;2.35;0.82;;;24.70;65.80;;;;;;5069886;28;20027;-56
2021/07/07 00:28:08;;;;;;;1.05;0.60;;;24.70;65.70;;;;;;5061764;28;20078;-50
2021/07/07 00:30:35;;;;;;;4.57;0.90;;;24.80;65.80;;;;;;5053051;28;20060;-50
2021/07/07 00:33:01;;;;;;;0.88;0.70;;;24.70;65.70;;;;;;5070926;28;20470;-53
2021/07/07 00:35:26;;;;;;;2.45;0.82;;;24.80;65.60;;;;;;5069489;28;20033;-53
2021/07/07 00:37:53;;;;;;;1.38;0.77;;;24.80;65.70;;;;;;5074077;28;20524;-49
2021/07/07 00:40:19;;;;;;;1.52;0.93;;;24.70;65.50;;;;;;5074800;28;20037;-54
2021/07/07 00:42:45;;;;;;;2.50;0.70;;;24.70;65.60;;;;;;5061682;28;20029;-51
2021/07/07 00:45:12;;;;;;;0.75;0.60;;;24.70;65.50;;;;;;5071928;28;20021;-48
2021/07/07 00:47:37;;;;;;;2.47;0.82;;;24.70;65.40;;;;;;5074434;28;20082;-52
2021/07/07 00:50:05;;;;;;;1.35;0.80;;;24.70;65.40;;;;;;5075431;28;20028;-49
2021/07/07 00:52:30;;;;;;;4.15;0.90;;;24.70;65.30;;;;;;5058645;28;20043;-50
2021/07/07 00:54:56;;;;;;;1.45;0.80;;;24.70;65.40;;;;;;5073632;28;20033;-53
2021/07/07 00:57:27;;;;;;;1.17;0.80;;;24.70;65.40;;;;;;5074621;28;20090;-52
2021/07/07 00:59:54;;;;;;;1.35;1.10;;;24.70;65.30;;;;;;5074973;28;20044;-51
2021/07/07 01:02:20;;;;;;;0.85;0.77;;;24.70;65.30;;;;;;5060457;28;20426;-50
2021/07/07 01:04:46;;;;;;;1.38;0.73;;;24.70;65.30;;;;;;5071808;28;20060;-51
2021/07/07 01:07:12;;;;;;;1.10;0.80;;;24.70;65.30;;;;;;5075329;28;20128;-50
2021/07/07 01:09:38;;;;;;;1.13;0.60;;;24.70;65.30;;;;;;5073015;28;20032;-51
2021/07/07 01:12:03;;;;;;;1.48;1.00;;;24.70;65.30;;;;;;5055352;28;20029;-53
2021/07/07 01:14:29;;;;;;;0.93;0.82;;;24.70;65.20;;;;;;5054908;28;20031;-51
2021/07/07 01:16:55;;;;;;;1.17;0.75;;;24.70;65.30;;;;;;5055417;28;20436;-52
2021/07/07 01:19:21;;;;;;;1.10;1.00;;;24.70;65.20;;;;;;5054850;28;20521;-49
2021/07/07 01:21:48;;;;;;;1.80;0.95;;;24.70;65.20;;;;;;5055446;28;20029;-50
2021/07/07 01:24:16;;;;;;;0.80;0.70;;;24.70;65.20;;;;;;5063193;28;20490;-50
2021/07/07 01:26:42;;;;;;;1.50;1.00;;;24.70;65.10;;;;;;5058811;28;20064;-54
2021/07/07 01:29:09;;;;;;;2.13;0.90;;;24.70;65.10;;;;;;5066715;28;20036;-55
2021/07/07 01:31:34;;;;;;;1.85;0.85;;;24.70;65.00;;;;;;5058872;28;20087;-52
2021/07/07 01:34:00;;;;;;;1.20;0.75;;;24.70;65.10;;;;;;5056150;28;20443;-54
2021/07/07 01:36:26;;;;;;;1.35;0.82;;;24.70;65.00;;;;;;5054580;28;20055;-51
2021/07/07 01:38:52;;;;;;;1.05;0.82;;;24.70;65.00;;;;;;5068633;28;20021;-49
2021/07/07 01:41:18;;;;;;;2.45;1.00;;;24.70;64.90;;;;;;5073539;28;20024;-60
2021/07/07 01:43:44;;;;;;;1.23;0.80;;;24.70;65.00;;;;;;5073367;28;20370;-50
2021/07/07 01:46:09;;;;;;;1.17;0.70;;;24.70;65.00;;;;;;5072679;28;20449;-52
2021/07/07 01:48:35;;;;;;;1.40;0.90;;;24.70;65.00;;;;;;5058001;28;20037;-49
2021/07/07 01:51:00;;;;;;;1.45;1.10;;;24.70;65.10;;;;;;5055703;28;20036;-52
2021/07/07 01:53:26;;;;;;;1.30;0.80;;;24.70;65.00;;;;;;5058129;28;20498;-50
2021/07/07 01:55:55;;;;;;;2.25;0.93;;;24.70;65.00;;;;;;5074342;28;20021;-51
2021/07/07 01:58:21;;;;;;;1.63;0.80;;;24.70;65.00;;;;;;5064312;28;20028;-49
2021/07/07 02:00:47;;;;;;;2.50;0.80;;;24.70;64.90;;;;;;5055722;28;20045;-52
2021/07/07 02:03:12;;;;;;;1.27;0.80;;;24.70;64.90;;;;;;5054552;28;20029;-50
2021/07/07 02:05:38;;;;;;;2.13;0.85;;;24.70;65.00;;;;;;5058376;28;20392;-53
2021/07/07 02:08:06;;;;;;;2.22;0.88;;;24.60;64.90;;;;;;5073592;28;20611;-54
2021/07/07 02:10:32;;;;;;;1.25;1.02;;;24.60;64.90;;;;;;5073142;28;20099;-50
2021/07/07 02:12:58;;;;;;;1.05;0.65;;;24.70;65.00;;;;;;5072228;28;20025;-57
2021/07/07 02:15:28;;;;;;;0.88;0.68;;;24.60;64.80;;;;;;5055320;28;20036;-55
2021/07/07 02:17:56;;;;;;;1.00;0.68;;;24.70;64.90;;;;;;5071560;28;20394;-54
2021/07/07 02:20:22;;;;;;;1.42;0.88;;;24.60;64.90;;;;;;5061780;28;20047;-55
2021/07/07 02:22:48;;;;;;;3.70;1.00;;;24.70;64.90;;;;;;5055343;28;20107;-52
2021/07/07 02:25:18;;;;;;;0.70;0.68;;;24.70;64.80;;;;;;5054199;28;20043;-54
2021/07/07 02:27:43;;;;;;;0.73;0.60;;;24.70;64.80;;;;;;5053480;28;20041;-55
2021/07/07 02:30:12;;;;;;;1.42;0.80;;;24.70;64.80;;;;;;5055273;28;20021;-57
2021/07/07 02:32:38;;;;;;;1.98;0.90;;;24.70;64.70;;;;;;5061496;28;20543;-55
2021/07/07 02:35:06;;;;;;;1.48;0.80;;;24.60;64.70;;;;;;5058411;28;20048;-54
2021/07/07 02:37:31;;;;;;;2.03;1.05;;;24.70;65.30;;;;;;5072897;28;20037;-55
2021/07/07 02:39:57;;;;;;;4.32;1.25;;;24.70;64.60;;;;;;5071685;28;20025;-55
2021/07/07 02:42:23;;;;;;;1.83;1.05;;;24.70;64.60;;;;;;5067728;28;20021;-55
2021/07/07 02:44:48;;;;;;;1.08;0.80;;;24.70;64.70;;;;;;5053755;28;20031;-55
2021/07/07 02:47:14;;;;;;;1.77;1.48;;;24.60;64.60;;;;;;5063884;28;20085;-55
2021/07/07 02:49:39;;;;;;;1.88;0.90;;;24.60;64.50;;;;;;5072247;28;20477;-54
2021/07/07 02:52:05;;;;;;;1.98;0.90;;;24.60;64.60;;;;;;5072866;28;20043;-55
2021/07/07 02:54:31;;;;;;;2.10;0.80;;;24.60;65.10;;;;;;5072467;28;20127;-54
2021/07/07 02:56:57;;;;;;;1.95;1.08;;;24.60;64.50;;;;;;5073160;28;20028;-54
2021/07/07 02:59:22;;;;;;;1.30;0.90;;;24.70;64.50;;;;;;5070387;28;20078;-55
2021/07/07 03:01:48;;;;;;;1.73;0.88;;;24.70;64.50;;;;;;5065279;28;20475;-55
2021/07/07 03:04:13;;;;;;;1.45;0.88;;;24.60;64.50;;;;;;5053774;28;20045;-56
2021/07/07 03:06:39;;;;;;;2.38;1.00;;;24.60;64.40;;;;;;5052710;28;20052;-53
2021/07/07 03:09:05;;;;;;;3.03;1.30;;;24.70;64.50;;;;;;5066240;28;20039;-56
2021/07/07 03:11:31;;;;;;;1.40;0.98;;;24.60;64.50;;;;;;5056148;28;20029;-55
2021/07/07 03:13:57;;;;;;;1.52;0.90;;;24.60;64.50;;;;;;5054338;28;20025;-56
2021/07/07 03:16:23;;;;;;;1.27;0.82;;;24.60;64.50;;;;;;5052319;28;20035;-56
2021/07/07 03:18:49;;;;;;;4.53;1.30;;;24.60;64.40;;;;;;5054215;28;20033;-55
2021/07/07 03:21:14;;;;;;;3.53;1.15;;;24.60;64.50;;;;;;5053138;28;20401;-54
2021/07/07 03:23:40;;;;;;;1.83;1.05;;;24.60;64.60;;;;;;5034644;28;20028;-56
2021/07/07 03:26:06;;;;;;;1.65;0.95;;;24.60;64.60;;;;;;5053129;28;20025;-55
2021/07/07 03:28:31;;;;;;;2.28;1.00;;;24.60;64.50;;;;;;5061992;28;20040;-53
2021/07/07 03:30:57;;;;;;;1.08;0.82;;;24.60;64.50;;;;;;5072331;28;20024;-55
2021/07/07 03:33:24;;;;;;;2.25;1.10;;;24.60;64.50;;;;;;5054881;28;20558;-56
2021/07/07 03:35:50;;;;;;;2.13;1.00;;;24.60;64.50;;;;;;5072170;28;20025;-56
2021/07/07 03:38:16;;;;;;;1.52;1.05;;;24.60;64.40;;;;;;5070471;28;20464;-56
2021/07/07 03:40:43;;;;;;;1.77;1.10;;;24.60;64.40;;;;;;5067348;28;20934;-60
2021/07/07 03:43:09;;;;;;;1.30;0.88;;;24.60;64.30;;;;;;5066924;28;20021;-55
2021/07/07 03:45:34;;;;;;;1.42;0.80;;;24.60;64.50;;;;;;5067777;28;20074;-55
2021/07/07 03:48:01;;;;;;;2.08;1.08;;;24.60;64.40;;;;;;5070011;28;20036;-56
2021/07/07 03:50:27;;;;;;;1.65;0.93;;;24.60;64.30;;;;;;5069554;28;20047;-55
2021/07/07 03:52:53;;;;;;;1.52;0.88;;;24.60;64.30;;;;;;5069271;28;20024;-56
2021/07/07 03:55:20;;;;;;;1.52;0.88;;;24.60;64.30;;;;;;5066285;28;20079;-55
2021/07/07 03:57:46;;;;;;;2.08;1.13;;;24.60;64.20;;;;;;5067131;28;20099;-55
2021/07/07 04:00:15;;;;;;;1.30;1.00;;;24.60;64.20;;;;;;5068262;28;20135;-58
2021/07/07 04:02:41;;;;;;;1.33;0.90;;;24.60;64.30;;;;;;5068035;28;20045;-52
2021/07/07 04:05:08;;;;;;;1.75;0.85;;;24.60;64.30;;;;;;5068785;28;20067;-54
2021/07/07 04:07:35;;;;;;;1.27;0.98;;;24.60;64.30;;;;;;5068513;28;20381;-56
2021/07/07 04:10:01;;;;;;;1.80;1.20;;;24.60;64.30;;;;;;5070375;28;20029;-52
2021/07/07 04:12:26;;;;;;;2.33;1.00;;;24.60;64.20;;;;;;5064291;28;20031;-55
2021/07/07 04:14:52;;;;;;;0.90;0.70;;;24.60;64.10;;;;;;5068993;28;20458;-58
2021/07/07 04:17:18;;;;;;;1.55;0.77;;;24.60;64.10;;;;;;5069736;28;20024;-51
2021/07/07 04:19:43;;;;;;;1.20;0.77;;;24.60;64.10;;;;;;5065209;28;20106;-54
2021/07/07 04:22:09;;;;;;;1.60;1.00;;;24.60;64.00;;;;;;5067756;28;20107;-54
2021/07/07 04:24:35;;;;;;;1.13;0.88;;;24.60;64.00;;;;;;5066716;28;20032;-55
2021/07/07 04:27:01;;;;;;;1.20;0.90;;;24.60;64.00;;;;;;5070173;28;20041;-56
2021/07/07 04:29:27;;;;;;;2.08;1.00;;;24.60;64.10;;;;;;5065152;28;20032;-56
2021/07/07 04:31:56;;;;;;;1.58;1.02;;;24.60;64.00;;;;;;5066000;28;20039;-55
2021/07/07 04:34:23;;;;;;;1.27;0.90;;;24.60;64.00;;;;;;5071084;28;20063;-61
2021/07/07 04:36:49;;;;;;;1.73;0.90;;;24.60;64.00;;;;;;5071345;28;20039;-55
2021/07/07 04:39:15;;;;;;;1.35;0.90;;;24.60;64.00;;;;;;5069173;28;20025;-56
2021/07/07 04:41:41;;;;;;;1.55;0.80;;;24.60;63.90;;;;;;5060110;28;20029;-55
2021/07/07 04:44:07;;;;;;;1.27;0.80;;;24.60;63.90;;;;;;5052163;28;20412;-56
2021/07/07 04:46:33;;;;;;;0.98;0.82;;;24.60;63.90;;;;;;5039166;28;20127;-54
2021/07/07 04:48:59;;;;;;;0.93;0.68;;;24.60;63.80;;;;;;5068009;28;20033;-56
2021/07/07 04:51:24;;;;;;;2.60;0.80;;;24.60;63.80;;;;;;5051497;28;20433;-55
2021/07/07 04:53:50;;;;;;;1.27;0.80;;;24.60;63.80;;;;;;5053120;28;20025;-54
2021/07/07 04:56:16;;;;;;;1.52;0.70;;;24.60;63.80;;;;;;5068813;28;20024;-55
2021/07/07 04:58:42;;;;;;;1.00;0.70;;;24.60;63.70;;;;;;5069467;28;20021;-55
2021/07/07 05:01:08;;;;;;;2.60;0.90;;;24.60;63.70;;;;;;5061808;28;20049;-55
2021/07/07 05:03:53;;;;;;;1.15;0.60;;;24.60;63.70;;;;;;5066827;28;20103;-55
2021/07/07 05:06:25;;;;;;;1.67;0.93;;;24.60;63.80;;;;;;5063426;28;20040;-56
2021/07/07 05:08:50;;;;;;;1.30;0.80;;;24.60;63.70;;;;;;5048848;28;20381;-56
2021/07/07 05:11:17;;;;;;;0.85;0.73;;;24.70;63.60;;;;;;5066939;28;20036;-56
2021/07/07 05:13:43;;;;;;;1.10;0.60;;;24.70;63.80;;;;;;5065524;28;20391;-56
2021/07/07 05:16:08;;;;;;;2.58;0.80;;;24.60;64.00;;;;;;5067463;28;20373;-55
2021/07/07 05:18:34;;;;;;;2.97;0.73;;;24.70;63.80;;;;;;5065022;28;20056;-57
2021/07/07 05:20:59;;;;;;;2.15;0.85;;;24.70;64.00;;;;;;5060319;28;20029;-55
2021/07/07 05:23:25;;;;;;;1.67;0.65;;;24.80;64.10;;;;;;5052908;28;20087;-58
2021/07/07 05:25:51;;;;;;;1.52;0.68;;;24.70;64.40;;;;;;5055280;28;20428;-56
2021/07/07 05:28:16;;;;;;;3.78;0.80;;;24.70;64.50;;;;;;5038271;28;20036;-56
2021/07/07 05:30:42;;;;;;;4.35;0.75;;;24.70;64.60;;;;;;5062743;28;20079;-56
2021/07/07 05:33:09;;;;;;;1.73;0.70;;;24.70;64.80;;;;;;5057079;28;20091;-56
2021/07/07 05:35:36;;;;;;;1.48;0.80;;;24.70;64.70;;;;;;5068339;28;20032;-55
2021/07/07 05:38:03;;;;;;;3.30;0.63;;;24.70;64.90;;;;;;5056293;28;20066;-55
2021/07/07 05:40:29;;;;;;;3.10;0.82;;;24.80;64.80;;;;;;5054339;28;20029;-56
2021/07/07 05:42:55;;;;;;;12.48;2.50;;;24.80;64.80;;;;;;5054573;28;20442;-56
2021/07/07 05:45:23;;;;;;;24.88;3.40;;;24.70;63.20;;;;;;5070459;28;20056;-56
2021/07/07 05:47:49;;;;;;;13.90;1.20;;;24.70;62.10;;;;;;5073342;28;20032;-56
2021/07/07 05:50:16;;;;;;;4.90;1.30;;;24.60;62.70;;;;;;5065260;28;20028;-56
2021/07/07 05:52:42;;;;;;;3.55;0.90;;;24.70;61.80;;;;;;5070057;28;20025;-58
2021/07/07 05:55:08;;;;;;;5.63;0.90;;;24.60;61.30;;;;;;5062911;28;20390;-57
2021/07/07 05:57:37;;;;;;;2.63;0.82;;;24.60;60.80;;;;;;5055303;28;20032;-58
2021/07/07 06:00:21;;;;;;;6.05;1.30;;;24.60;60.90;;;;;;5054096;28;20120;-56
2021/07/07 06:02:48;;;;;;;5.85;2.33;;;24.60;61.00;;;;;;5054754;28;20106;-58
2021/07/07 06:05:14;;;;;;;9.27;1.75;;;24.50;60.80;;;;;;5062502;28;20147;-58
2021/07/07 06:07:41;;;;;;;5.85;1.45;;;24.50;61.10;;;;;;5072395;28;20123;-58
2021/07/07 06:10:09;;;;;;;10.55;1.75;;;24.50;61.10;;;;;;5037918;28;20533;-58
2021/07/07 06:12:35;;;;;;;6.93;1.35;;;24.50;61.20;;;;;;5064273;28;20032;-58
2021/07/07 06:15:01;;;;;;;6.75;1.83;;;24.50;60.80;;;;;;5056239;28;20025;-56
2021/07/07 06:17:26;;;;;;;8.13;1.40;;;24.60;61.30;;;;;;5062560;28;20040;-61
2021/07/07 06:19:52;;;;;;;6.80;1.48;;;24.60;60.60;;;;;;5072739;28;20039;-60
2021/07/07 06:22:18;;;;;;;4.13;1.00;;;24.70;60.10;;;;;;5066370;28;20031;-53
2021/07/07 06:24:44;;;;;;;5.43;1.20;;;24.70;60.50;;;;;;5059743;28;20111;-52
2021/07/07 06:27:09;;;;;;;7.55;1.60;;;24.70;61.10;;;;;;5062072;28;20107;-57
2021/07/07 06:29:35;;;;;;;5.10;1.10;;;24.70;62.00;;;;;;5052690;28;20124;-56
2021/07/07 06:32:01;;;;;;;7.70;1.20;;;24.60;61.00;;;;;;5068582;28;20389;-56
2021/07/07 06:34:27;;;;;;;9.23;1.95;;;24.60;61.10;;;;;;5064693;28;20029;-61
2021/07/07 06:36:52;;;;;;;5.15;1.10;;;24.60;60.30;;;;;;5056579;28;20024;-57
2021/07/07 06:39:18;;;;;;;10.10;1.30;;;24.60;59.90;;;;;;5059174;28;20485;-56
2021/07/07 06:41:44;;;;;;;6.50;1.40;;;24.60;59.60;;;;;;5053686;28;20422;-58
2021/07/07 06:44:09;;;;;;;2.40;1.30;;;24.60;60.10;;;;;;5071211;28;20474;-56
2021/07/07 06:46:36;;;;;;;2.92;1.25;;;24.60;59.20;;;;;;5061834;28;20426;-59
2021/07/07 06:49:02;;;;;;;2.65;1.65;;;23.90;60.90;;;;;;5054666;28;20033;-58
2021/07/07 06:51:28;;;;;;;3.40;1.30;;;23.20;63.20;;;;;;5054756;28;20029;-60
2021/07/07 06:53:54;;;;;;;4.38;1.20;;;22.60;64.30;;;;;;5053909;28;20033;-57
2021/07/07 06:56:19;;;;;;;4.00;1.20;;;22.50;64.90;;;;;;5058847;28;20028;-58
2021/07/07 06:58:45;;;;;;;3.03;1.42;;;22.30;65.50;;;;;;5063017;28;20083;-58
2021/07/07 07:01:11;;;;;;;2.53;1.55;;;22.30;66.00;;;;;;5055207;28;20446;-58
2021/07/07 07:03:36;;;;;;;2.38;1.40;;;22.20;66.30;;;;;;5055444;28;20973;-57
2021/07/07 07:06:02;;;;;;;4.40;1.33;;;22.10;67.10;;;;;;5055754;28;20021;-57
2021/07/07 07:08:28;;;;;;;5.63;1.45;;;22.10;67.20;;;;;;5057823;28;20076;-58
2021/07/07 07:10:54;;;;;;;2.75;1.20;;;22.20;67.40;;;;;;5061607;28;20028;-58
2021/07/07 07:13:19;;;;;;;2.20;1.20;;;22.40;66.50;;;;;;5060049;28;20426;-58
2021/07/07 07:15:48;;;;;;;3.35;1.42;;;22.90;65.00;;;;;;5072413;28;20385;-58
2021/07/07 07:18:14;;;;;;;3.40;1.17;;;23.30;63.80;;;;;;5057226;28;20045;-58
2021/07/07 07:20:40;;;;;;;2.65;1.10;;;23.50;63.40;;;;;;5051799;28;20025;-58
2021/07/07 07:23:06;;;;;;;2.60;1.42;;;23.60;62.90;;;;;;5052362;28;20036;-58
2021/07/07 07:25:32;;;;;;;2.03;1.17;;;23.80;63.00;;;;;;5059042;28;20035;-58
2021/07/07 07:27:58;;;;;;;2.67;0.90;;;23.90;62.80;;;;;;5077397;28;20098;-58
2021/07/07 07:30:23;;;;;;;2.25;1.15;;;23.90;62.70;;;;;;5058173;28;20075;-58
2021/07/07 07:32:50;;;;;;;1.77;1.40;;;24.00;62.80;;;;;;5052886;28;20132;-58
2021/07/07 07:35:17;;;;;;;3.53;1.00;;;24.00;62.70;;;;;;5069486;28;20051;-58
2021/07/07 07:37:49;;;;;;;2.75;0.90;;;24.00;62.70;;;;;;5061714;28;20037;-58
2021/07/07 07:40:21;;;;;;;2.05;1.58;;;24.00;62.70;;;;;;5058155;28;20028;-58
2021/07/07 07:42:47;;;;;;;3.25;1.10;;;24.10;62.70;;;;;;5067637;28;20876;-56
2021/07/07 07:45:13;;;;;;;2.40;1.17;;;24.10;62.70;;;;;;5069281;28;20025;-59
2021/07/07 07:47:41;;;;;;;3.75;1.00;;;24.10;62.70;;;;;;5068248;28;20036;-57
2021/07/07 07:50:11;;;;;;;2.92;1.30;;;24.20;62.70;;;;;;5071830;28;20060;-57
2021/07/07 07:52:37;;;;;;;2.83;0.95;;;24.20;62.20;;;;;;5071070;28;20039;-58
2021/07/07 07:55:03;;;;;;;2.85;0.98;;;24.20;62.40;;;;;;5071838;28;20028;-58
2021/07/07 07:57:29;;;;;;;2.88;1.20;;;24.20;62.60;;;;;;5082686;28;20530;-58
2021/07/07 07:59:54;;;;;;;2.15;0.90;;;24.20;62.30;;;;;;5091344;28;20048;-58
2021/07/07 08:02:20;;;;;;;3.95;1.10;;;24.20;62.50;;;;;;5092038;28;20032;-58
2021/07/07 08:04:46;;;;;;;1.15;0.93;;;24.20;62.40;;;;;;5091064;28;20030;-58
2021/07/07 08:07:11;;;;;;;2.58;1.00;;;24.20;62.30;;;;;;5082482;28;20060;-58
2021/07/07 08:09:37;;;;;;;1.63;1.02;;;24.20;62.10;;;;;;5071263;28;20050;-57
2021/07/07 08:12:03;;;;;;;1.63;1.02;;;24.20;62.00;;;;;;5070869;28;20640;-58
2021/07/07 08:14:29;;;;;;;1.65;0.88;;;24.30;61.80;;;;;;5052696;28;20029;-58
2021/07/07 08:16:55;;;;;;;2.15;0.90;;;24.30;62.30;;;;;;5066903;28;20111;-58
2021/07/07 08:19:20;;;;;;;1.17;0.60;;;24.30;62.30;;;;;;5071318;28;20103;-58
2021/07/07 08:21:47;;;;;;;4.05;1.20;;;24.20;61.90;;;;;;5070644;28;20021;-58
2021/07/07 08:24:12;;;;;;;3.00;0.80;;;24.30;62.20;;;;;;5071578;28;20043;-58
2021/07/07 08:26:38;;;;;;;2.25;1.30;;;24.30;62.10;;;;;;5089054;28;20107;-58
2021/07/07 08:29:04;;;;;;;3.17;1.52;;;24.20;61.90;;;;;;5090973;28;20123;-58
2021/07/07 08:31:29;;;;;;;1.98;1.13;;;24.30;62.00;;;;;;5091110;28;20063;-58
2021/07/07 08:33:55;;;;;;;1.73;0.80;;;24.30;62.10;;;;;;5090910;28;20031;-56
2021/07/07 08:36:26;;;;;;;2.90;1.00;;;24.30;61.90;;;;;;5088869;28;20078;-58
2021/07/07 08:38:53;;;;;;;2.63;1.00;;;24.30;62.00;;;;;;5072899;28;20028;-58
2021/07/07 08:41:19;;;;;;;3.35;0.90;;;24.40;62.30;;;;;;5091590;28;20040;-58
2021/07/07 08:43:45;;;;;;;1.70;1.00;;;24.30;61.70;;;;;;5091037;28;20307;-60
2021/07/07 08:46:10;;;;;;;2.60;0.82;;;24.30;61.60;;;;;;5087238;28;20035;-58
2021/07/07 08:48:36;;;;;;;2.45;1.08;;;24.30;61.80;;;;;;5091983;28;20039;-58
2021/07/07 08:51:04;;;;;;;2.50;1.10;;;24.30;61.90;;;;;;5073428;28;20043;-58
2021/07/07 08:53:30;;;;;;;2.03;1.02;;;24.30;62.10;;;;;;5091580;28;20120;-58
2021/07/07 08:55:57;;;;;;;1.98;0.82;;;24.30;61.80;;;;;;5091428;28;20043;-56
2021/07/07 08:58:22;;;;;;;2.03;1.00;;;24.30;61.70;;;;;;5093939;28;20032;-58
2021/07/07 09:00:50;;;;;;;3.75;1.02;;;24.30;61.80;;;;;;5095125;28;20102;-57
2021/07/07 09:03:18;;;;;;;2.63;1.15;;;24.40;62.10;;;;;;5095848;28;20082;-58
2021/07/07 09:05:49;;;;;;;1.70;0.80;;;24.30;62.00;;;;;;5095483;28;20531;-60
2021/07/07 09:08:22;;;;;;;1.38;0.95;;;24.40;62.10;;;;;;5090147;28;20024;-56
2021/07/07 09:10:47;;;;;;;2.90;0.93;;;24.40;61.80;;;;;;5074251;28;20473;-56
2021/07/07 09:13:17;;;;;;;1.50;0.90;;;24.40;61.80;;;;;;5075231;28;20036;-58
2021/07/07 09:15:44;;;;;;;1.38;0.88;;;24.40;61.70;;;;;;5056156;28;20414;-56
2021/07/07 09:18:22;;;;;;;2.00;0.93;;;24.40;62.40;;;;;;5075086;28;20059;-48
2021/07/07 09:20:48;;;;;;;1.77;0.90;;;24.50;62.80;;;;;;5074318;28;20032;-53
2021/07/07 09:23:15;;;;;;;2.05;1.10;;;24.50;63.90;;;;;;5074659;28;20032;-52
2021/07/07 09:25:53;;;;;;;1.90;1.08;;;24.40;66.10;;;;;;5075123;28;20052;-49
2021/07/07 09:28:35;;;;;;;4.82;1.08;;;24.40;66.30;;;;;;5075205;28;20084;-50
2021/07/07 09:31:25;;;;;;;2.08;1.10;;;24.40;65.80;;;;;;5064940;28;20025;-51
2021/07/07 09:33:51;;;;;;;2.38;1.00;;;24.40;66.00;;;;;;5072984;28;20029;-51
2021/07/07 09:36:19;;;;;;;1.58;0.90;;;24.40;66.30;;;;;;5080724;28;20380;-57
2021/07/07 09:38:46;;;;;;;1.67;0.73;;;24.40;66.60;;;;;;5093487;28;20028;-62
2021/07/07 09:41:13;;;;;;;4.00;0.90;;;24.40;67.20;;;;;;5068829;28;20029;-54
2021/07/07 09:43:53;;;;;;;2.97;1.33;;;24.40;67.60;;;;;;5061476;28;20070;-55
2021/07/07 09:46:21;;;;;;;2.83;1.00;;;24.40;66.80;;;;;;5073037;28;20047;-54
2021/07/07 09:48:48;;;;;;;1.77;0.80;;;24.40;67.10;;;;;;5073042;28;20090;-58
2021/07/07 09:51:15;;;;;;;3.15;0.82;;;24.40;66.70;;;;;;5061379;28;20025;-54
2021/07/07 09:53:41;;;;;;;3.35;1.15;;;24.40;66.20;;;;;;5072208;28;20063;-52
2021/07/07 09:56:07;;;;;;;2.40;0.75;;;24.40;67.30;;;;;;5072731;28;20024;-55
2021/07/07 09:58:32;;;;;;;2.17;0.90;;;24.50;65.40;;;;;;5073449;28;20085;-55
2021/07/07 10:00:58;;;;;;;2.95;0.80;;;24.50;66.70;;;;;;5065428;28;20052;-55
2021/07/07 10:03:24;;;;;;;3.30;0.90;;;24.60;67.70;;;;;;5060520;28;20025;-55
2021/07/07 10:05:51;;;;;;;6.90;0.90;;;24.60;64.40;;;;;;5061385;28;20029;-54
2021/07/07 10:08:19;;;;;;;1.67;0.80;;;24.60;66.20;;;;;;5058309;28;20355;-57
2021/07/07 10:10:45;;;;;;;2.53;1.10;;;24.50;66.40;;;;;;5071776;28;20032;-60
2021/07/07 10:13:12;;;;;;;2.33;0.90;;;24.50;65.80;;;;;;5053544;28;20033;-53
2021/07/07 10:15:40;;;;;;;2.65;0.80;;;24.40;67.20;;;;;;5072655;28;20032;-54
2021/07/07 10:18:07;;;;;;;4.32;1.02;;;24.40;67.30;;;;;;5055651;28;20180;-51
2021/07/07 10:20:36;;;;;;;1.67;0.90;;;24.40;66.80;;;;;;5073150;28;20033;-53
2021/07/07 10:23:05;;;;;;;3.20;1.20;;;24.40;67.10;;;;;;5056000;28;20025;-54
2021/07/07 10:25:32;;;;;;;4.93;1.10;;;24.40;67.30;;;;;;5052978;28;20037;-52
2021/07/07 10:28:02;;;;;;;1.50;0.90;;;24.40;66.70;;;;;;5052752;28;20033;-54
2021/07/07 10:30:57;;;;;;;2.95;0.98;;;24.40;67.40;;;;;;5061039;28;20047;-54
2021/07/07 10:33:25;;;;;;;1.60;0.95;;;24.40;67.50;;;;;;5072742;28;20125;-53
2021/07/07 10:36:21;;;;;;;4.55;1.30;;;24.30;67.10;;;;;;5071285;28;20028;-56
2021/07/07 10:39:03;;;;;;;2.35;1.00;;;24.40;65.50;;;;;;5061672;28;20071;-60
2021/07/07 10:41:47;;;;;;;3.50;1.00;;;24.50;68.60;;;;;;5053965;28;20556;-55
2021/07/07 10:44:25;;;;;;;3.47;1.33;;;24.50;69.00;;;;;;5052695;28;20025;-55
2021/07/07 10:47:04;;;;;;;1.77;1.00;;;24.50;68.10;;;;;;5066657;28;20397;-60
2021/07/07 10:49:51;;;;;;;1.77;0.98;;;24.50;67.00;;;;;;5054826;28;20060;-53
2021/07/07 10:52:31;;;;;;;2.53;1.45;;;24.50;67.50;;;;;;5050531;28;20079;-53
2021/07/07 10:55:00;;;;;;;1.38;0.70;;;24.50;66.60;;;;;;5035196;28;20029;-53
2021/07/07 10:57:35;;;;;;;2.53;0.88;;;24.50;65.40;;;;;;5053117;28;20041;-53
2021/07/07 11:00:07;;;;;;;1.67;0.90;;;24.60;65.70;;;;;;5053367;28;20060;-55
2021/07/07 11:02:33;;;;;;;3.67;1.70;;;24.60;64.80;;;;;;5058938;28;20033;-55
2021/07/07 11:05:04;;;;;;;2.72;0.75;;;24.50;66.10;;;;;;5051648;28;20032;-54
2021/07/07 11:07:35;;;;;;;1.10;0.73;;;24.50;67.40;;;;;;5061057;28;20028;-54
2021/07/07 11:10:06;;;;;;;1.88;0.90;;;24.60;65.40;;;;;;5055486;28;20104;-57
2021/07/07 11:12:40;;;;;;;1.45;0.90;;;24.60;64.90;;;;;;5052551;28;20053;-55
2021/07/07 11:15:08;;;;;;;1.90;0.70;;;24.60;64.90;;;;;;5051382;28;20502;-55
2021/07/07 11:17:35;;;;;;;1.52;0.90;;;24.60;64.30;;;;;;5051794;28;20397;-54
2021/07/07 11:20:07;;;;;;;2.28;0.98;;;24.60;64.60;;;;;;5034302;28;20036;-56
2021/07/07 11:22:34;;;;;;;1.35;0.95;;;24.60;65.60;;;;;;5052225;28;20025;-53
2021/07/07 11:25:03;;;;;;;2.13;0.90;;;24.60;67.10;;;;;;5051407;28;20025;-55
2021/07/07 11:27:30;;;;;;;2.63;0.93;;;24.60;68.70;;;;;;5071262;28;20432;-57
2021/07/07 11:29:55;;;;;;;2.90;0.90;;;24.60;67.00;;;;;;5060804;28;20036;-54
2021/07/07 11:32:31;;;;;;;1.33;0.80;;;24.60;67.20;;;;;;5072561;28;20078;-54
2021/07/07 11:35:05;;;;;;;4.63;1.10;;;24.60;68.00;;;;;;5051981;28;20432;-54
2021/07/07 11:37:33;;;;;;;2.55;0.82;;;24.60;68.50;;;;;;5052231;28;20529;-54
2021/07/07 11:40:07;;;;;;;1.33;1.00;;;24.70;68.30;;;;;;5052720;28;20108;-58
2021/07/07 11:42:34;;;;;;;2.08;1.00;;;24.60;68.60;;;;;;5064175;28;20028;-52
2021/07/07 11:45:00;;;;;;;2.75;1.02;;;24.60;68.70;;;;;;5058122;28;20074;-54
2021/07/07 11:47:27;;;;;;;2.60;1.00;;;24.60;69.00;;;;;;5051339;28;20044;-54
2021/07/07 11:50:07;;;;;;;1.67;0.70;;;24.60;69.10;;;;;;5070521;28;20082;-56
2021/07/07 11:52:33;;;;;;;1.02;0.70;;;24.70;69.10;;;;;;5071486;28;20024;-54
2021/07/07 11:55:00;;;;;;;1.70;1.02;;;24.60;69.80;;;;;;5055524;28;20025;-54
2021/07/07 11:57:27;;;;;;;3.70;1.15;;;24.60;69.60;;;;;;5052858;28;20033;-55
2021/07/07 11:59:53;;;;;;;1.63;1.27;;;24.60;68.00;;;;;;5050974;28;20471;-62
2021/07/07 12:02:20;;;;;;;1.58;0.70;;;24.60;67.90;;;;;;5062857;28;20068;-54
2021/07/07 12:04:46;;;;;;;1.85;0.85;;;24.60;68.70;;;;;;5071415;28;20032;-55
2021/07/07 12:07:19;;;;;;;1.83;0.90;;;24.60;68.00;;;;;;5055741;28;20032;-52
2021/07/07 12:09:48;;;;;;;2.25;1.00;;;24.60;69.10;;;;;;5059844;28;20490;-55
2021/07/07 12:12:13;;;;;;;2.65;0.65;;;24.60;69.00;;;;;;5050805;28;20029;-55
2021/07/07 12:14:39;;;;;;;1.70;0.70;;;24.60;68.60;;;;;;5052694;28;20074;-55
2021/07/07 12:17:06;;;;;;;3.13;1.05;;;24.60;67.70;;;;;;5066421;28;20115;-54
2021/07/07 12:19:33;;;;;;;3.58;1.00;;;24.70;67.90;;;;;;5070803;28;20039;-55
2021/07/07 12:22:01;;;;;;;1.45;0.90;;;24.60;68.00;;;;;;5069893;28;20026;-55
2021/07/07 12:24:28;;;;;;;1.00;0.60;;;24.60;68.00;;;;;;5069057;28;20543;-54
2021/07/07 12:27:00;;;;;;;1.23;0.80;;;24.60;68.10;;;;;;5059575;28;20175;-63
2021/07/07 12:29:30;;;;;;;2.17;1.02;;;24.60;68.20;;;;;;5053017;28;20025;-54
2021/07/07 12:32:09;;;;;;;1.88;0.75;;;24.70;67.60;;;;;;5050126;28;20037;-55
2021/07/07 12:34:37;;;;;;;1.35;0.80;;;24.70;67.40;;;;;;5052379;28;20040;-55
2021/07/07 12:37:08;;;;;;;0.70;0.70;;;24.70;67.30;;;;;;5051786;28;20037;-55
2021/07/07 12:39:40;;;;;;;0.95;0.65;;;24.70;67.40;;;;;;5070935;28;20037;-55
2021/07/07 12:42:09;;;;;;;1.08;0.85;;;24.70;67.90;;;;;;5051940;28;20388;-55
2021/07/07 12:44:40;;;;;;;1.25;0.55;;;24.70;67.90;;;;;;5070270;28;20029;-57
2021/07/07 12:47:08;;;;;;;0.97;0.50;;;24.70;68.10;;;;;;5061514;28;20114;-55
2021/07/07 12:49:52;;;;;;;1.50;0.75;;;24.70;68.20;;;;;;5061624;28;20095;-56